Time;durP1;ratioP1;P1;durP2;ratioP2;P2;SDS_P1;SDS_P2;PMS_P1;PMS_P2;Temp;Humidity;BMP_temperature;BMP_pressure;BME280_temperature;BME280_humidity;BME280_pressure;Samples;Min_cycle;Max_cycle;Signal;HPM_P1;HPM_P2
2021/12/28 00:01:10;;;;;;;37.22;19.00;;;;;;;;;;5053218;28;20173;-60
2021/12/28 00:03:37;;;;;;;39.60;19.48;;;;;;;;;;5052893;28;20165;-60
2021/12/28 00:06:03;;;;;;;40.08;20.70;;;;;;;;;;5056894;28;20183;-60
2021/12/28 00:08:29;;;;;;;39.33;20.27;;;;;;;;;;5056989;28;20165;-59
2021/12/28 00:10:56;;;;;;;34.90;19.30;;;;;;;;;;5056898;28;20201;-60
2021/12/28 00:13:22;;;;;;;41.50;20.15;;;;;;;;;;5056807;28;20491;-60
2021/12/28 00:18:23;;;;;;;42.20;19.83;;;;;;;;;;5056875;28;20167;-59
2021/12/28 00:20:52;;;;;;;36.08;19.58;;;;;;;;;;5056394;28;20176;-61
2021/12/28 00:23:28;;;;;;;37.30;20.08;;;;;;;;;;5056985;28;20192;-60
2021/12/28 00:25:54;;;;;;;43.05;20.58;;;;;;;;;;5057438;28;20183;-59
2021/12/28 00:28:21;;;;;;;39.38;19.58;;;;;;;;;;5058845;28;20180;-61
2021/12/28 00:30:47;;;;;;;40.47;21.35;;;;;;;;;;5058992;28;20495;-61
2021/12/28 00:33:13;;;;;;;40.47;20.85;;;;;;;;;;5057394;28;20511;-61
2021/12/28 00:35:40;;;;;;;40.28;20.70;;;;;;;;;;5058742;28;20601;-61
2021/12/28 00:38:08;;;;;;;41.78;20.52;;;;;;;;;;5058071;28;20240;-60
2021/12/28 00:40:34;;;;;;;44.50;20.33;;;;;;;;;;5057767;28;20187;-60
2021/12/28 00:43:00;;;;;;;42.45;20.73;;;;;;;;;;5057417;28;20260;-59
2021/12/28 00:45:27;;;;;;;38.03;20.38;;;;;;;;;;5058574;28;20173;-62
2021/12/28 00:47:53;;;;;;;41.05;21.10;;;;;;;;;;5058277;28;20627;-61
2021/12/28 00:50:19;;;;;;;41.60;21.13;;;;;;;;;;5060247;28;20176;-60
2021/12/28 00:52:45;;;;;;;39.85;21.08;;;;;;;;;;5062932;28;20268;-60
2021/12/28 00:55:12;;;;;;;38.63;20.60;;;;;;;;;;5061064;28;20492;-60
2021/12/28 00:57:38;;;;;;;45.97;20.92;;;;;;;;;;5062585;28;20173;-60
2021/12/28 01:00:06;;;;;;;40.65;20.98;;;;;;;;;;5060404;28;20488;-60
2021/12/28 01:02:31;;;;;;;42.53;22.25;;;;;;;;;;5057579;28;20169;-60
2021/12/28 01:04:57;;;;;;;41.60;20.65;;;;;;;;;;5058296;28;20179;-60
2021/12/28 01:07:23;;;;;;;42.47;19.83;;;;;;;;;;5061296;28;20207;-61
2021/12/28 01:09:49;;;;;;;45.38;21.60;;;;;;;;;;5065240;28;20699;-61
2021/12/28 01:12:15;;;;;;;40.70;20.63;;;;;;;;;;5069516;28;20184;-62
2021/12/28 01:14:41;;;;;;;38.28;20.38;;;;;;;;;;5070403;28;20176;-60
2021/12/28 01:17:07;;;;;;;40.58;20.40;;;;;;;;;;5069252;28;20189;-62
2021/12/28 01:19:33;;;;;;;41.35;20.80;;;;;;;;;;5070614;28;20195;-60
2021/12/28 01:22:01;;;;;;;38.42;20.85;;;;;;;;;;5070108;28;20169;-62
2021/12/28 01:24:27;;;;;;;41.88;20.77;;;;;;;;;;5067474;28;20177;-60
2021/12/28 01:26:53;;;;;;;43.00;21.58;;;;;;;;;;5074253;28;20176;-61
2021/12/28 01:29:19;;;;;;;45.03;21.88;;;;;;;;;;5074297;28;20216;-62
2021/12/28 01:31:45;;;;;;;42.15;21.73;;;;;;;;;;5067349;28;20640;-62
2021/12/28 01:34:11;;;;;;;41.85;21.77;;;;;;;;;;5073717;28;20165;-60
2021/12/28 01:36:37;;;;;;;46.95;22.20;;;;;;;;;;5074183;28;20219;-61
2021/12/28 01:39:04;;;;;;;42.05;21.83;;;;;;;;;;5075033;28;20184;-61
2021/12/28 01:41:31;;;;;;;41.58;21.98;;;;;;;;;;5072605;28;20165;-62
2021/12/28 01:43:58;;;;;;;41.90;22.48;;;;;;;;;;5057208;28;20707;-60
2021/12/28 01:46:24;;;;;;;45.63;22.60;;;;;;;;;;5054869;28;20604;-61
2021/12/28 01:48:50;;;;;;;41.22;21.20;;;;;;;;;;5054990;28;20171;-61
2021/12/28 01:51:17;;;;;;;44.95;23.05;;;;;;;;;;5054597;28;20196;-60
2021/12/28 01:53:44;;;;;;;52.05;23.20;;;;;;;;;;5054724;28;20188;-60
2021/12/28 01:56:12;;;;;;;43.47;21.45;;;;;;;;;;5054576;28;20176;-61
2021/12/28 01:58:39;;;;;;;45.78;21.92;;;;;;;;;;5055164;28;20165;-60
2021/12/28 02:01:05;;;;;;;45.42;21.85;;;;;;;;;;5054597;28;20165;-61
2021/12/28 02:03:32;;;;;;;45.75;22.98;;;;;;;;;;5054345;28;20230;-60
2021/12/28 02:05:58;;;;;;;39.38;20.73;;;;;;;;;;5054618;28;20207;-58
2021/12/28 02:08:24;;;;;;;44.25;22.95;;;;;;;;;;5054461;28;20617;-59
2021/12/28 02:10:51;;;;;;;44.97;22.02;;;;;;;;;;5054231;28;20628;-60
2021/12/28 02:13:17;;;;;;;42.97;21.40;;;;;;;;;;5054425;28;20168;-59
2021/12/28 02:15:45;;;;;;;44.70;23.27;;;;;;;;;;5054357;28;20169;-60
2021/12/28 02:18:12;;;;;;;41.92;21.98;;;;;;;;;;5054391;28;20173;-60
2021/12/28 02:20:38;;;;;;;46.78;21.73;;;;;;;;;;5054300;28;20175;-58
2021/12/28 02:23:05;;;;;;;45.42;21.70;;;;;;;;;;5054258;28;20603;-59
2021/12/28 02:25:31;;;;;;;45.60;21.58;;;;;;;;;;5054258;28;20169;-61
2021/12/28 02:27:57;;;;;;;41.10;21.75;;;;;;;;;;5053155;28;20241;-60
2021/12/28 02:30:23;;;;;;;48.30;22.10;;;;;;;;;;5053878;28;20169;-59
2021/12/28 02:32:50;;;;;;;51.00;24.23;;;;;;;;;;5053817;28;20176;-61
2021/12/28 02:35:21;;;;;;;45.30;22.90;;;;;;;;;;5054155;28;20251;-60
2021/12/28 02:37:47;;;;;;;42.25;21.70;;;;;;;;;;5054164;28;20484;-60
2021/12/28 02:40:14;;;;;;;45.30;22.92;;;;;;;;;;5053804;28;20168;-60
2021/12/28 02:42:41;;;;;;;49.70;23.98;;;;;;;;;;5053933;28;20241;-61
2021/12/28 02:45:10;;;;;;;46.47;23.88;;;;;;;;;;5053684;28;20252;-61
2021/12/28 02:47:40;;;;;;;40.17;21.67;;;;;;;;;;5053733;28;20172;-61
2021/12/28 02:50:07;;;;;;;47.28;23.50;;;;;;;;;;5054002;28;20165;-61
2021/12/28 02:52:36;;;;;;;47.65;23.65;;;;;;;;;;5053381;28;20647;-61
2021/12/28 02:55:02;;;;;;;49.28;23.25;;;;;;;;;;5053747;28;20169;-61
2021/12/28 02:57:28;;;;;;;46.42;22.85;;;;;;;;;;5053364;28;20165;-61
2021/12/28 02:59:54;;;;;;;45.03;23.02;;;;;;;;;;5053420;28;20172;-61
2021/12/28 03:02:20;;;;;;;46.78;22.13;;;;;;;;;;5053393;28;20222;-61
2021/12/28 03:04:46;;;;;;;46.53;22.88;;;;;;;;;;5053451;28;20169;-61
2021/12/28 03:07:12;;;;;;;50.83;24.50;;;;;;;;;;5053942;28;20172;-59
2021/12/28 03:09:38;;;;;;;46.65;23.55;;;;;;;;;;5053389;28;20161;-60
2021/12/28 03:12:04;;;;;;;48.50;23.88;;;;;;;;;;5053299;28;20189;-61
2021/12/28 03:14:30;;;;;;;47.00;23.02;;;;;;;;;;5053443;28;20168;-60
2021/12/28 03:16:56;;;;;;;45.08;22.63;;;;;;;;;;5053585;28;20169;-60
2021/12/28 03:19:22;;;;;;;48.50;24.40;;;;;;;;;;5053268;28;20307;-61
2021/12/28 03:21:50;;;;;;;45.20;23.52;;;;;;;;;;5053499;28;20347;-60
2021/12/28 03:24:16;;;;;;;50.05;24.00;;;;;;;;;;5053410;28;20160;-59
2021/12/28 03:26:42;;;;;;;48.33;23.27;;;;;;;;;;5053141;28;20511;-60
2021/12/28 03:29:08;;;;;;;48.33;23.33;;;;;;;;;;5053037;28;20168;-60
2021/12/28 03:31:34;;;;;;;51.40;24.52;;;;;;;;;;5053139;28;20746;-60
2021/12/28 03:34:00;;;;;;;47.58;23.15;;;;;;;;;;5054009;28;20171;-60
2021/12/28 03:36:28;;;;;;;46.58;23.83;;;;;;;;;;5053244;28;20481;-60
2021/12/28 03:38:54;;;;;;;43.22;22.33;;;;;;;;;;5053241;28;20172;-60
2021/12/28 03:41:21;;;;;;;48.85;23.60;;;;;;;;;;5057145;28;20581;-60
2021/12/28 03:43:49;;;;;;;47.75;24.08;;;;;;;;;;5057368;28;20165;-60
2021/12/28 03:46:15;;;;;;;49.55;23.83;;;;;;;;;;5057224;28;20210;-61
2021/12/28 03:48:41;;;;;;;46.22;22.77;;;;;;;;;;5056892;28;20656;-61
2021/12/28 03:51:08;;;;;;;53.47;24.92;;;;;;;;;;5057099;28;20508;-60
2021/12/28 03:53:34;;;;;;;46.50;24.60;;;;;;;;;;5056803;28;20635;-61
2021/12/28 03:56:00;;;;;;;47.40;24.38;;;;;;;;;;5056956;28;20162;-60
2021/12/28 03:58:26;;;;;;;49.00;24.48;;;;;;;;;;5056861;28;20176;-59
2021/12/28 04:00:52;;;;;;;49.05;23.52;;;;;;;;;;5056819;28;20169;-60
2021/12/28 04:03:18;;;;;;;47.03;24.25;;;;;;;;;;5056641;28;20248;-58
2021/12/28 04:05:45;;;;;;;51.42;23.38;;;;;;;;;;5056650;28;20161;-61
2021/12/28 04:08:12;;;;;;;44.28;22.65;;;;;;;;;;5056828;28;20180;-60
2021/12/28 04:10:50;;;;;;;50.92;24.50;;;;;;;;;;5056481;28;20195;-61
2021/12/28 04:13:17;;;;;;;48.95;23.70;;;;;;;;;;5056799;28;20157;-61
2021/12/28 04:15:43;;;;;;;51.33;23.60;;;;;;;;;;5056544;28;20417;-61
2021/12/28 04:18:09;;;;;;;48.00;24.05;;;;;;;;;;5056536;28;20179;-61
2021/12/28 04:20:35;;;;;;;49.03;24.23;;;;;;;;;;5056884;28;20259;-61
2021/12/28 04:23:01;;;;;;;49.63;24.08;;;;;;;;;;5056429;28;20169;-60
2021/12/28 04:25:27;;;;;;;49.45;23.83;;;;;;;;;;5056709;28;20171;-61
2021/12/28 04:27:53;;;;;;;50.50;24.13;;;;;;;;;;5056113;28;20165;-61
2021/12/28 04:30:19;;;;;;;51.85;24.48;;;;;;;;;;5056512;28;20537;-60
2021/12/28 04:32:45;;;;;;;47.33;23.15;;;;;;;;;;5056107;28;20161;-61
2021/12/28 04:35:12;;;;;;;53.13;23.77;;;;;;;;;;5056085;28;20169;-58
2021/12/28 04:37:38;;;;;;;53.65;23.65;;;;;;;;;;5056222;28;20172;-60
2021/12/28 04:40:06;;;;;;;48.67;23.40;;;;;;;;;;5055972;28;20243;-61
2021/12/28 04:42:32;;;;;;;54.03;23.45;;;;;;;;;;5055927;28;20173;-60
2021/12/28 04:44:58;;;;;;;46.60;23.98;;;;;;;;;;5055952;28;20169;-60
2021/12/28 04:47:24;;;;;;;50.45;23.50;;;;;;;;;;5056119;28;20179;-60
2021/12/28 04:49:50;;;;;;;49.15;24.08;;;;;;;;;;5055858;28;20169;-58
2021/12/28 04:52:16;;;;;;;47.78;22.65;;;;;;;;;;5053659;28;20200;-60
2021/12/28 04:54:43;;;;;;;47.75;22.42;;;;;;;;;;5055979;28;20157;-58
2021/12/28 04:57:09;;;;;;;45.63;23.08;;;;;;;;;;5063866;28;20173;-60
2021/12/28 04:59:36;;;;;;;52.35;24.63;;;;;;;;;;5060952;28;20563;-60
2021/12/28 05:02:02;;;;;;;47.95;23.35;;;;;;;;;;5055744;28;20244;-60
2021/12/28 05:04:28;;;;;;;54.60;24.67;;;;;;;;;;5055668;28;20231;-60
2021/12/28 05:06:54;;;;;;;49.55;22.98;;;;;;;;;;5055534;28;20203;-60
2021/12/28 05:09:21;;;;;;;48.90;25.08;;;;;;;;;;5055587;28;20169;-60
2021/12/28 05:11:48;;;;;;;54.70;24.52;;;;;;;;;;5055277;28;20189;-60
2021/12/28 05:14:16;;;;;;;46.67;24.00;;;;;;;;;;5055198;28;20184;-60
2021/12/28 05:16:42;;;;;;;48.75;22.42;;;;;;;;;;5055448;28;20157;-60
2021/12/28 05:19:09;;;;;;;48.78;24.75;;;;;;;;;;5055699;28;20165;-60
2021/12/28 05:21:35;;;;;;;49.05;24.10;;;;;;;;;;5055636;28;20180;-60
2021/12/28 05:24:01;;;;;;;49.35;24.38;;;;;;;;;;5055095;28;20180;-61
2021/12/28 05:26:27;;;;;;;49.30;23.05;;;;;;;;;;5055119;28;20251;-61
2021/12/28 05:28:54;;;;;;;51.80;23.98;;;;;;;;;;5055017;28;20759;-61
2021/12/28 05:31:20;;;;;;;54.20;24.73;;;;;;;;;;5055012;28;20648;-61
2021/12/28 05:33:46;;;;;;;52.42;24.80;;;;;;;;;;5054915;28;20180;-61
2021/12/28 05:36:12;;;;;;;56.20;23.98;;;;;;;;;;5055101;28;20330;-60
2021/12/28 05:38:38;;;;;;;51.30;22.05;;;;;;;;;;5054942;28;20758;-61
2021/12/28 05:41:05;;;;;;;53.78;24.30;;;;;;;;;;5054860;28;20608;-61
2021/12/28 05:43:31;;;;;;;48.05;23.50;;;;;;;;;;5054751;28;20176;-61
2021/12/28 05:45:57;;;;;;;51.58;24.15;;;;;;;;;;5054762;28;20173;-61
2021/12/28 05:48:23;;;;;;;47.88;23.35;;;;;;;;;;5054714;28;20248;-61
2021/12/28 05:50:49;;;;;;;47.45;23.75;;;;;;;;;;5054641;28;20192;-60
2021/12/28 05:53:15;;;;;;;50.58;23.13;;;;;;;;;;5054460;28;20643;-61
2021/12/28 05:55:41;;;;;;;52.40;24.85;;;;;;;;;;5054999;28;20161;-61
2021/12/28 05:58:07;;;;;;;52.75;24.88;;;;;;;;;;5054547;28;20160;-61
2021/12/28 06:00:33;;;;;;;47.08;23.77;;;;;;;;;;5054733;28;20157;-61
2021/12/28 06:02:59;;;;;;;53.25;23.45;;;;;;;;;;5054418;28;20169;-61
2021/12/28 06:05:25;;;;;;;50.42;24.38;;;;;;;;;;5054512;28;20509;-60
2021/12/28 06:07:51;;;;;;;48.83;22.98;;;;;;;;;;5054305;28;20229;-61
2021/12/28 06:10:17;;;;;;;48.70;24.02;;;;;;;;;;5054311;28;20172;-61
2021/12/28 06:12:44;;;;;;;45.95;23.55;;;;;;;;;;5054059;28;20197;-61
2021/12/28 06:15:10;;;;;;;49.00;23.00;;;;;;;;;;5054128;28;20161;-61
2021/12/28 06:17:36;;;;;;;47.28;24.33;;;;;;;;;;5054542;28;20175;-60
2021/12/28 06:20:02;;;;;;;49.92;23.30;;;;;;;;;;5054186;28;20161;-61
2021/12/28 06:22:28;;;;;;;50.35;24.65;;;;;;;;;;5054277;28;20168;-61
2021/12/28 06:24:54;;;;;;;51.15;24.02;;;;;;;;;;5054001;28;20294;-61
2021/12/28 06:27:20;;;;;;;48.25;23.08;;;;;;;;;;5054061;28;20201;-60
2021/12/28 06:29:46;;;;;;;49.95;23.75;;;;;;;;;;5053942;28;20223;-60
2021/12/28 06:32:12;;;;;;;48.95;23.73;;;;;;;;;;5053891;28;20203;-61
2021/12/28 06:34:38;;;;;;;48.75;24.42;;;;;;;;;;5054322;28;20157;-61
2021/12/28 06:37:04;;;;;;;51.03;23.95;;;;;;;;;;5054356;28;20504;-59
2021/12/28 06:39:30;;;;;;;46.38;23.52;;;;;;;;;;5054037;28;20219;-60
2021/12/28 06:41:56;;;;;;;55.05;24.30;;;;;;;;;;5054767;28;20173;-59
2021/12/28 06:44:22;;;;;;;45.13;22.77;;;;;;;;;;5054284;28;20557;-60
2021/12/28 06:46:49;;;;;;;47.35;22.52;;;;;;;;;;5054028;28;20164;-60
2021/12/28 06:49:15;;;;;;;51.13;23.55;;;;;;;;;;5053927;28;20507;-60
2021/12/28 06:51:41;;;;;;;44.67;22.38;;;;;;;;;;5053937;28;20189;-60
2021/12/28 06:54:07;;;;;;;44.60;23.25;;;;;;;;;;5053649;28;20191;-60
2021/12/28 06:56:33;;;;;;;53.22;22.17;;;;;;;;;;5053742;28;20248;-60
2021/12/28 06:58:59;;;;;;;49.95;24.10;;;;;;;;;;5053629;28;20225;-60
2021/12/28 07:01:25;;;;;;;50.88;23.88;;;;;;;;;;5053703;28;20165;-58
2021/12/28 07:03:51;;;;;;;49.05;23.63;;;;;;;;;;5053395;28;20185;-60
2021/12/28 07:06:17;;;;;;;52.60;23.63;;;;;;;;;;5053462;28;20247;-61
2021/12/28 07:08:43;;;;;;;44.15;22.02;;;;;;;;;;5053642;28;20180;-61
2021/12/28 07:11:10;;;;;;;48.30;24.63;;;;;;;;;;5053378;28;20617;-60
2021/12/28 07:13:36;;;;;;;47.80;23.42;;;;;;;;;;5053285;28;20184;-61
2021/12/28 07:16:02;;;;;;;51.22;24.33;;;;;;;;;;5053392;28;20244;-61
2021/12/28 07:18:28;;;;;;;48.45;22.65;;;;;;;;;;5053212;28;20169;-61
2021/12/28 07:20:54;;;;;;;52.70;24.38;;;;;;;;;;5053213;28;20161;-61
2021/12/28 07:23:20;;;;;;;52.40;24.52;;;;;;;;;;5053270;28;20600;-61
2021/12/28 07:25:46;;;;;;;46.03;22.67;;;;;;;;;;5053110;28;20172;-60
2021/12/28 07:28:13;;;;;;;46.92;23.45;;;;;;;;;;5053514;28;20199;-60
2021/12/28 07:30:39;;;;;;;51.60;24.65;;;;;;;;;;5052997;28;20452;-61
2021/12/28 07:33:05;;;;;;;50.50;24.45;;;;;;;;;;5052109;28;20171;-61
2021/12/28 07:35:31;;;;;;;49.53;23.90;;;;;;;;;;5053084;28;20157;-61
2021/12/28 07:37:57;;;;;;;49.15;23.45;;;;;;;;;;5053123;28;20255;-60
2021/12/28 07:40:23;;;;;;;49.20;23.40;;;;;;;;;;5053171;28;20252;-61
2021/12/28 07:42:49;;;;;;;53.08;23.92;;;;;;;;;;5053041;28;20165;-59
2021/12/28 07:45:16;;;;;;;54.92;23.50;;;;;;;;;;5053002;28;20240;-59
2021/12/28 07:47:42;;;;;;;48.15;23.75;;;;;;;;;;5052966;28;20183;-59
2021/12/28 07:50:09;;;;;;;51.63;23.48;;;;;;;;;;5053160;28;20177;-61
2021/12/28 07:52:35;;;;;;;55.22;24.00;;;;;;;;;;5053034;28;20586;-61
2021/12/28 07:55:04;;;;;;;48.42;23.95;;;;;;;;;;5053053;28;20585;-61
2021/12/28 07:57:30;;;;;;;50.90;24.35;;;;;;;;;;5052983;28;20639;-59
2021/12/28 07:59:56;;;;;;;49.97;23.88;;;;;;;;;;5053000;28;20169;-60
2021/12/28 08:02:22;;;;;;;48.78;24.98;;;;;;;;;;5053227;28;20434;-59
2021/12/28 08:04:48;;;;;;;47.22;23.23;;;;;;;;;;5052976;28;20196;-60
2021/12/28 08:07:14;;;;;;;53.65;24.50;;;;;;;;;;5053151;28;20310;-61
2021/12/28 08:09:40;;;;;;;47.78;23.45;;;;;;;;;;5053003;28;20169;-61
2021/12/28 08:12:06;;;;;;;47.70;23.08;;;;;;;;;;5052982;28;20200;-61
2021/12/28 08:14:32;;;;;;;47.78;24.02;;;;;;;;;;5052693;28;20161;-61
2021/12/28 08:16:58;;;;;;;53.20;24.67;;;;;;;;;;5053151;28;20240;-60
2021/12/28 08:19:24;;;;;;;49.85;23.70;;;;;;;;;;5053024;28;20210;-60
2021/12/28 08:21:50;;;;;;;50.75;24.73;;;;;;;;;;5052848;28;20252;-61
2021/12/28 08:24:16;;;;;;;48.72;23.92;;;;;;;;;;5052810;28;20255;-61
2021/12/28 08:26:42;;;;;;;48.00;23.13;;;;;;;;;;5052987;28;20168;-59
2021/12/28 08:29:07;;;;;;;48.88;24.05;;;;;;;;;;5056223;28;20218;-60
2021/12/28 08:31:34;;;;;;;54.30;24.77;;;;;;;;;;5056695;28;20188;-61
2021/12/28 08:34:00;;;;;;;49.58;24.27;;;;;;;;;;5056239;28;20589;-61
2021/12/28 08:36:26;;;;;;;52.97;24.52;;;;;;;;;;5056085;28;20282;-61
2021/12/28 08:38:52;;;;;;;48.38;23.35;;;;;;;;;;5056142;28;20198;-61
2021/12/28 08:41:18;;;;;;;51.83;24.40;;;;;;;;;;5056200;28;20175;-60
2021/12/28 08:43:45;;;;;;;48.88;24.45;;;;;;;;;;5056545;28;20569;-60
2021/12/28 08:46:11;;;;;;;44.85;23.05;;;;;;;;;;5056006;28;20579;-60
2021/12/28 08:48:37;;;;;;;52.38;24.08;;;;;;;;;;5056016;28;20251;-60
2021/12/28 08:51:03;;;;;;;53.67;24.38;;;;;;;;;;5054838;28;20193;-59
2021/12/28 08:53:29;;;;;;;50.28;24.48;;;;;;;;;;5055736;28;20627;-61
2021/12/28 08:55:55;;;;;;;50.03;24.95;;;;;;;;;;5056160;28;20157;-60
2021/12/28 08:58:21;;;;;;;49.90;23.92;;;;;;;;;;5056114;28;20161;-60
2021/12/28 09:00:47;;;;;;;49.28;23.90;;;;;;;;;;5055954;28;20527;-61
2021/12/28 09:03:13;;;;;;;52.10;25.08;;;;;;;;;;5055835;28;20169;-60
2021/12/28 09:05:39;;;;;;;52.08;24.48;;;;;;;;;;5055729;28;20553;-61
2021/12/28 09:08:08;;;;;;;50.25;23.83;;;;;;;;;;5056144;28;20658;-61
2021/12/28 09:10:34;;;;;;;54.75;24.70;;;;;;;;;;5055821;28;20169;-60
2021/12/28 09:13:01;;;;;;;44.78;23.67;;;;;;;;;;5055706;28;20169;-60
2021/12/28 09:15:26;;;;;;;46.30;23.95;;;;;;;;;;5055662;28;20248;-59
2021/12/28 09:17:53;;;;;;;46.97;23.30;;;;;;;;;;5054598;28;20591;-60
2021/12/28 09:20:20;;;;;;;44.83;22.70;;;;;;;;;;5055563;28;20234;-61
2021/12/28 09:22:47;;;;;;;47.60;23.40;;;;;;;;;;5055598;28;20512;-61
2021/12/28 09:25:15;;;;;;;52.50;23.70;;;;;;;;;;5055902;28;20183;-59
2021/12/28 09:27:43;;;;;;;49.47;24.30;;;;;;;;;;5055839;28;20607;-60
2021/12/28 09:30:09;;;;;;;53.95;24.05;;;;;;;;;;5055532;28;20165;-60
2021/12/28 09:32:35;;;;;;;49.15;25.33;;;;;;;;;;5058798;28;20192;-60
2021/12/28 09:35:01;;;;;;;49.15;25.00;;;;;;;;;;5055336;28;20244;-59
2021/12/28 09:37:27;;;;;;;49.83;23.35;;;;;;;;;;5054959;28;20256;-61
2021/12/28 09:39:54;;;;;;;52.42;24.70;;;;;;;;;;5055444;28;20178;-61
2021/12/28 09:42:20;;;;;;;54.75;25.08;;;;;;;;;;5055282;28;20169;-61
2021/12/28 09:44:51;;;;;;;52.95;24.02;;;;;;;;;;5055057;28;20226;-59
2021/12/28 09:47:17;;;;;;;47.67;24.98;;;;;;;;;;5055294;28;20184;-61
2021/12/28 09:49:44;;;;;;;48.13;24.45;;;;;;;;;;5054943;28;20305;-61
2021/12/28 09:52:10;;;;;;;56.00;26.58;;;;;;;;;;5054751;28;20227;-59
2021/12/28 09:54:36;;;;;;;49.50;24.33;;;;;;;;;;5055153;28;20226;-59
2021/12/28 09:57:02;;;;;;;50.33;24.95;;;;;;;;;;5054651;28;20628;-61
2021/12/28 09:59:29;;;;;;;48.08;24.05;;;;;;;;;;5054615;28;20515;-61
2021/12/28 10:01:55;;;;;;;49.25;24.90;;;;;;;;;;5054675;28;20169;-61
2021/12/28 10:04:21;;;;;;;45.22;24.58;;;;;;;;;;5054528;28;20165;-61
2021/12/28 10:06:47;;;;;;;49.00;25.30;;;;;;;;;;5054555;28;20604;-60
2021/12/28 10:09:14;;;;;;;51.88;24.92;;;;;;;;;;5054486;28;20223;-61
2021/12/28 10:11:43;;;;;;;48.88;25.17;;;;;;;;;;5054375;28;20242;-61
2021/12/28 10:14:18;;;;;;;46.28;23.67;;;;;;;;;;5054506;28;20184;-60
2021/12/28 10:16:46;;;;;;;50.72;25.75;;;;;;;;;;5054381;28;20168;-60
2021/12/28 10:19:31;;;;;;;51.50;25.05;;;;;;;;;;5054507;28;20175;-60
2021/12/28 10:21:57;;;;;;;48.53;23.90;;;;;;;;;;5054318;28;20219;-60
2021/12/28 10:24:34;;;;;;;45.83;23.08;;;;;;;;;;5054438;28;20234;-60
2021/12/28 10:27:14;;;;;;;53.50;25.90;;;;;;;;;;5053439;28;20165;-60
2021/12/28 10:29:40;;;;;;;48.38;24.42;;;;;;;;;;5054619;28;20172;-60
2021/12/28 10:32:16;;;;;;;51.58;24.75;;;;;;;;;;5054473;28;20195;-60
2021/12/28 10:34:46;;;;;;;51.25;24.88;;;;;;;;;;5054526;28;20161;-59
2021/12/28 10:37:17;;;;;;;47.42;24.90;;;;;;;;;;5053413;28;20655;-59
2021/12/28 10:39:44;;;;;;;45.45;24.58;;;;;;;;;;5054943;28;20161;-59
2021/12/28 10:42:10;;;;;;;48.00;24.33;;;;;;;;;;5054626;28;20184;-59
2021/12/28 10:44:55;;;;;;;49.97;25.13;;;;;;;;;;5054662;28;20164;-59
2021/12/28 10:47:24;;;;;;;51.60;25.08;;;;;;;;;;5054403;28;20179;-60
2021/12/28 10:49:50;;;;;;;47.78;24.15;;;;;;;;;;5053748;28;20176;-60
2021/12/28 10:52:29;;;;;;;51.75;24.92;;;;;;;;;;5053821;28;20188;-60
2021/12/28 10:55:18;;;;;;;48.95;25.23;;;;;;;;;;5053036;28;20157;-60
2021/12/28 10:57:43;;;;;;;48.17;23.95;;;;;;;;;;5054405;28;20221;-60
2021/12/28 11:00:25;;;;;;;50.92;24.60;;;;;;;;;;5053815;28;20268;-60
2021/12/28 11:02:52;;;;;;;46.63;24.27;;;;;;;;;;5053850;28;20172;-60
2021/12/28 11:05:34;;;;;;;45.00;24.30;;;;;;;;;;5053842;28;20168;-60
2021/12/28 11:08:01;;;;;;;44.15;23.20;;;;;;;;;;5053597;28;20181;-60
2021/12/28 11:10:27;;;;;;;44.38;23.58;;;;;;;;;;5053969;28;20176;-61
2021/12/28 11:12:54;;;;;;;51.00;24.83;;;;;;;;;;5053363;28;20267;-61
2021/12/28 11:15:21;;;;;;;47.22;24.02;;;;;;;;;;5053753;28;20183;-58
2021/12/28 11:17:47;;;;;;;49.38;24.23;;;;;;;;;;5057870;28;20157;-60
2021/12/28 11:20:13;;;;;;;50.10;25.45;;;;;;;;;;5056563;28;20251;-58
2021/12/28 11:22:39;;;;;;;50.13;25.02;;;;;;;;;;5053514;28;20226;-60
2021/12/28 11:25:27;;;;;;;47.00;24.23;;;;;;;;;;5053309;28;20256;-60
2021/12/28 11:28:11;;;;;;;48.97;24.50;;;;;;;;;;5053521;28;20498;-57
2021/12/28 11:30:37;;;;;;;44.80;23.45;;;;;;;;;;5053173;28;20161;-58
2021/12/28 11:33:07;;;;;;;51.22;24.85;;;;;;;;;;5053518;28;20161;-60
2021/12/28 11:35:33;;;;;;;45.90;24.02;;;;;;;;;;5053491;28;20168;-59
2021/12/28 11:37:59;;;;;;;51.30;24.40;;;;;;;;;;5053199;28;20196;-60
2021/12/28 11:40:25;;;;;;;50.55;26.00;;;;;;;;;;5053448;28;20213;-60
2021/12/28 11:42:51;;;;;;;48.88;24.52;;;;;;;;;;5053031;28;20168;-60
2021/12/28 11:45:20;;;;;;;46.70;23.98;;;;;;;;;;5053095;28;20268;-60
2021/12/28 11:47:46;;;;;;;51.80;26.33;;;;;;;;;;5053391;28;20172;-60
2021/12/28 11:50:12;;;;;;;49.42;25.02;;;;;;;;;;5053170;28;20179;-59
2021/12/28 11:52:38;;;;;;;47.08;24.40;;;;;;;;;;5053003;28;20200;-59
2021/12/28 11:55:04;;;;;;;44.58;24.17;;;;;;;;;;5053336;28;20173;-59
2021/12/28 11:57:31;;;;;;;50.78;25.58;;;;;;;;;;5052958;28;20589;-59
2021/12/28 12:00:08;;;;;;;49.03;24.77;;;;;;;;;;5053247;28;20176;-59
2021/12/28 12:02:45;;;;;;;48.00;24.75;;;;;;;;;;5057347;28;20271;-59
2021/12/28 12:05:13;;;;;;;50.30;24.33;;;;;;;;;;5063889;28;20239;-61
2021/12/28 12:07:39;;;;;;;49.40;24.95;;;;;;;;;;5062719;28;20168;-61
2021/12/28 12:10:13;;;;;;;42.38;23.65;;;;;;;;;;5060892;28;20248;-60
2021/12/28 12:12:53;;;;;;;45.92;24.15;;;;;;;;;;5063124;28;20189;-60
2021/12/28 12:15:19;;;;;;;47.03;24.20;;;;;;;;;;5064563;28;20179;-60
2021/12/28 12:17:45;;;;;;;46.65;25.33;;;;;;;;;;5063092;28;20161;-60
2021/12/28 12:20:21;;;;;;;48.10;24.30;;;;;;;;;;5066933;28;20227;-60
2021/12/28 12:22:48;;;;;;;48.13;23.85;;;;;;;;;;5068096;28;20179;-60
2021/12/28 12:25:16;;;;;;;51.03;24.52;;;;;;;;;;5066685;28;20200;-61
2021/12/28 12:27:50;;;;;;;51.47;25.88;;;;;;;;;;5063600;28;20223;-61
2021/12/28 12:30:35;;;;;;;48.38;25.40;;;;;;;;;;5057182;28;20164;-60
2021/12/28 12:33:06;;;;;;;48.08;25.88;;;;;;;;;;5057386;28;20614;-61
2021/12/28 12:35:33;;;;;;;49.03;24.90;;;;;;;;;;5057935;28;20410;-60
2021/12/28 12:38:04;;;;;;;49.40;24.98;;;;;;;;;;5057298;28;20655;-60
2021/12/28 12:40:50;;;;;;;55.95;26.77;;;;;;;;;;5056904;28;20165;-60
2021/12/28 12:43:16;;;;;;;53.95;25.63;;;;;;;;;;5045848;28;20495;-61
2021/12/28 12:45:56;;;;;;;45.60;24.05;;;;;;;;;;5076166;28;20173;-60
2021/12/28 12:48:31;;;;;;;48.55;24.90;;;;;;;;;;5073476;28;20167;-61
2021/12/28 12:51:15;;;;;;;49.05;24.85;;;;;;;;;;5068137;28;20624;-60
2021/12/28 12:53:42;;;;;;;48.67;24.70;;;;;;;;;;5055792;28;20613;-60
2021/12/28 12:56:19;;;;;;;46.33;26.00;;;;;;;;;;5055812;28;20248;-60
2021/12/28 12:58:46;;;;;;;47.75;24.70;;;;;;;;;;5055722;28;20545;-60
2021/12/28 13:01:27;;;;;;;53.83;26.83;;;;;;;;;;5056019;28;20187;-60
2021/12/28 13:03:53;;;;;;;50.85;25.08;;;;;;;;;;5056170;28;20263;-60
2021/12/28 13:06:45;;;;;;;49.03;24.35;;;;;;;;;;5055707;28;20295;-60
2021/12/28 13:09:13;;;;;;;46.60;23.83;;;;;;;;;;5055417;28;20578;-60
2021/12/28 13:11:39;;;;;;;50.58;25.25;;;;;;;;;;5054972;28;20184;-60
2021/12/28 13:14:05;;;;;;;48.45;25.40;;;;;;;;;;5055386;28;20161;-59
2021/12/28 13:16:31;;;;;;;48.33;25.40;;;;;;;;;;5055533;28;20165;-60
2021/12/28 13:19:07;;;;;;;49.08;25.10;;;;;;;;;;5055346;28;20647;-60
2021/12/28 13:21:33;;;;;;;49.85;25.38;;;;;;;;;;5055787;28;20201;-60
2021/12/28 13:24:06;;;;;;;48.85;24.90;;;;;;;;;;5055271;28;20165;-60
2021/12/28 13:26:42;;;;;;;53.85;25.50;;;;;;;;;;5055250;28;20227;-59
2021/12/28 13:29:08;;;;;;;54.28;25.35;;;;;;;;;;5055527;28;20168;-60
2021/12/28 13:31:34;;;;;;;52.92;26.05;;;;;;;;;;5054987;28;20625;-60
2021/12/28 13:34:00;;;;;;;47.63;25.50;;;;;;;;;;5055371;28;20161;-60
2021/12/28 13:36:30;;;;;;;46.25;25.25;;;;;;;;;;5055050;28;20165;-61
2021/12/28 13:39:05;;;;;;;50.70;25.23;;;;;;;;;;5055173;28;20168;-60
2021/12/28 13:41:31;;;;;;;50.35;25.33;;;;;;;;;;5055353;28;20172;-60
2021/12/28 13:44:07;;;;;;;50.55;25.38;;;;;;;;;;5054960;28;20172;-60
2021/12/28 13:46:32;;;;;;;49.55;25.75;;;;;;;;;;5055362;28;20558;-59
2021/12/28 13:49:02;;;;;;;50.33;24.45;;;;;;;;;;5054956;28;20173;-60
2021/12/28 13:51:29;;;;;;;53.15;25.70;;;;;;;;;;5055035;28;20192;-60
2021/12/28 13:54:00;;;;;;;51.20;26.63;;;;;;;;;;5054744;28;20680;-60
2021/12/28 13:56:34;;;;;;;52.25;26.05;;;;;;;;;;5054592;28;20161;-60
2021/12/28 13:59:00;;;;;;;50.83;24.95;;;;;;;;;;5054818;28;20161;-60
2021/12/28 14:01:28;;;;;;;50.42;25.25;;;;;;;;;;5054388;28;20168;-60
2021/12/28 14:03:56;;;;;;;49.15;24.23;;;;;;;;;;5054652;28;20248;-59
2021/12/28 14:06:22;;;;;;;50.47;25.27;;;;;;;;;;5054799;28;20229;-59
2021/12/28 14:08:48;;;;;;;56.63;26.40;;;;;;;;;;5054795;28;20193;-59
2021/12/28 14:11:28;;;;;;;52.13;25.30;;;;;;;;;;5054658;28;20224;-61
2021/12/28 14:13:54;;;;;;;54.35;26.17;;;;;;;;;;5054898;28;20236;-57
2021/12/28 14:16:20;;;;;;;51.38;25.13;;;;;;;;;;5054818;28;20199;-61
2021/12/28 14:18:47;;;;;;;50.88;26.58;;;;;;;;;;5054351;28;20169;-60
2021/12/28 14:21:16;;;;;;;51.90;25.35;;;;;;;;;;5054387;28;20457;-61